Carneys Point Township, New Jersey
Current Conditions -  °F | °C
As of 8:51 AM on Friday 24 Oct 2014 (Local Time) from KILG Reporting Station
Overcast Overcast  
Wind Chill: 14°   Ceiling: 3700
Heat Index: 14°   Visibility: 10mi
Dew Point:   Wind: 10mph
Humidity: 65%   Direction: 310°NW
Pressure: 29.89"   Gusts: NA
Location:  39.6981°N, 75.4502°W
Report Text: KILG 241251Z 31009KT 10SM OVC037 14/08 A2989 RMK AO2 SLP122 T01440078
Loading
Personal Weather Stations






























Interactive Weather Map
Tropical Storm Tracking
New forecast layout! Learn more

10-Day Weather Forecast

Advertisements
Track Severe Weather on mobile